createdAt,value
2018-07-01T00:02:05.557Z,55.20
2018-07-01T00:04:35.539Z,55.00
2018-07-01T00:07:05.380Z,55.40
2018-07-01T00:09:35.343Z,55.80
2018-07-01T00:12:04.446Z,56.30
2018-07-01T00:14:33.818Z,57.00
2018-07-01T00:17:03.021Z,57.30
2018-07-01T00:19:32.150Z,57.20
2018-07-01T00:22:02.116Z,57.20
2018-07-01T00:24:31.152Z,57.00
2018-07-01T00:27:00.319Z,57.10
2018-07-01T00:29:29.692Z,57.30
2018-07-01T00:31:58.919Z,57.30
2018-07-01T00:34:28.036Z,57.50
2018-07-01T00:36:57.311Z,57.80
2018-07-01T00:39:26.440Z,57.90
2018-07-01T00:41:55.627Z,58.20
2018-07-01T00:44:24.788Z,58.30
2018-07-01T00:46:53.824Z,58.40
2018-07-01T00:49:22.976Z,58.50
2018-07-01T00:51:52.832Z,58.50
2018-07-01T00:54:22.010Z,58.60
2018-07-01T00:56:51.073Z,58.80
2018-07-01T00:59:20.179Z,58.90
2018-07-01T01:01:49.939Z,58.90
2018-07-01T01:04:19.042Z,58.90
2018-07-01T01:06:48.150Z,59.20
2018-07-01T01:09:17.569Z,59.30
2018-07-01T01:11:46.682Z,59.10
2018-07-01T01:14:15.830Z,59.20
2018-07-01T01:16:44.990Z,59.30
2018-07-01T01:19:14.166Z,59.40
2018-07-01T01:21:43.449Z,59.70
2018-07-01T01:26:41.290Z,59.70
2018-07-01T01:29:10.505Z,59.90
2018-07-01T01:31:39.802Z,60.00
2018-07-01T01:34:09.618Z,60.00
2018-07-01T01:36:40.111Z,60.40
2018-07-01T01:39:12.674Z,60.40
2018-07-01T01:41:48.701Z,60.50
2018-07-01T01:44:22.892Z,60.80
2018-07-01T01:46:56.755Z,60.20
2018-07-01T01:49:30.395Z,61.10
2018-07-01T01:52:05.009Z,61.20
2018-07-01T01:54:50.034Z,61.50
2018-07-01T01:57:25.814Z,61.70
2018-07-01T02:00:05.943Z,62.50
2018-07-01T02:02:39.273Z,61.60
2018-07-01T02:05:14.753Z,61.90
2018-07-01T02:07:50.746Z,62.00
2018-07-01T02:10:19.931Z,62.10
2018-07-01T02:12:49.223Z,62.50
2018-07-01T02:15:21.643Z,62.50
2018-07-01T02:17:52.609Z,62.60
2018-07-01T02:20:24.169Z,62.40
2018-07-01T02:23:27.479Z,62.50
2018-07-01T02:25:56.711Z,62.30
2018-07-01T02:28:25.939Z,62.90
2018-07-01T02:30:55.038Z,62.80
2018-07-01T02:33:24.109Z,63.00
2018-07-01T02:35:53.850Z,63.10
2018-07-01T02:38:22.896Z,63.80
2018-07-01T02:40:52.041Z,63.80
2018-07-01T02:43:21.263Z,64.00
2018-07-01T02:45:50.465Z,63.70
2018-07-01T02:48:19.735Z,64.00
2018-07-01T02:50:48.926Z,64.00
2018-07-01T02:53:18.154Z,64.30
2018-07-01T02:55:47.850Z,64.00
2018-07-01T02:58:17.912Z,63.80
2018-07-01T03:00:47.071Z,64.40
2018-07-01T03:03:16.550Z,64.30
2018-07-01T03:05:45.611Z,64.10
2018-07-01T03:08:15.228Z,64.00
2018-07-01T03:10:44.387Z,63.80
2018-07-01T03:13:13.588Z,63.50
2018-07-01T03:15:42.732Z,63.50
2018-07-01T03:18:11.829Z,63.60
2018-07-01T03:20:40.980Z,63.80
2018-07-01T03:23:09.984Z,63.00
2018-07-01T03:25:39.052Z,63.30
2018-07-01T03:28:08.121Z,63.10
2018-07-01T03:30:37.255Z,63.00
2018-07-01T03:33:06.845Z,62.70
2018-07-01T03:35:35.975Z,62.90
2018-07-01T03:38:05.557Z,62.20
2018-07-01T03:40:34.715Z,62.00
2018-07-01T03:43:03.974Z,62.00
2018-07-01T03:45:33.023Z,62.20
2018-07-01T03:48:02.086Z,62.30
2018-07-01T03:50:31.479Z,62.20
2018-07-01T03:53:01.320Z,63.10
2018-07-01T03:55:30.354Z,63.10
2018-07-01T03:57:59.465Z,62.70
2018-07-01T04:00:28.616Z,62.70
2018-07-01T04:02:57.638Z,62.60
2018-07-01T04:05:26.751Z,62.50
2018-07-01T04:07:55.852Z,63.10
2018-07-01T04:10:25.024Z,62.90
2018-07-01T04:12:54.221Z,62.70
2018-07-01T04:15:23.326Z,63.00
2018-07-01T04:17:52.691Z,62.70
2018-07-01T04:20:22.000Z,62.90
2018-07-01T04:22:51.019Z,63.20
2018-07-01T04:25:20.413Z,62.60
2018-07-01T04:27:49.552Z,62.70
2018-07-01T04:32:47.499Z,62.80
2018-07-01T04:35:16.495Z,62.90
2018-07-01T04:37:45.588Z,62.80
2018-07-01T04:40:14.604Z,63.00
2018-07-01T04:42:44.076Z,63.00
2018-07-01T04:45:13.237Z,63.50
2018-07-01T04:47:42.437Z,63.20
2018-07-01T04:50:11.648Z,62.50
2018-07-01T04:52:40.815Z,63.10
2018-07-01T04:55:09.868Z,63.30
2018-07-01T04:57:40.001Z,62.70
2018-07-01T05:00:09.421Z,63.20
2018-07-01T05:02:38.786Z,63.30
2018-07-01T05:05:08.427Z,63.20
2018-07-01T05:07:37.642Z,62.90
2018-07-01T05:10:06.911Z,62.20
2018-07-01T05:12:36.194Z,62.70
2018-07-01T05:15:05.559Z,62.00
2018-07-01T05:17:34.748Z,62.60
2018-07-01T05:20:03.872Z,62.10
2018-07-01T05:22:33.097Z,61.80
2018-07-01T05:25:02.148Z,61.40
2018-07-01T05:27:31.427Z,61.50
2018-07-01T05:30:00.457Z,60.40
2018-07-01T05:32:29.568Z,61.10
2018-07-01T05:34:58.652Z,60.30
2018-07-01T05:37:27.911Z,59.80
2018-07-01T05:39:57.141Z,60.40
2018-07-01T05:42:26.257Z,59.40
2018-07-01T05:44:55.440Z,58.90
2018-07-01T05:47:24.453Z,58.60
2018-07-01T05:49:53.653Z,58.80
2018-07-01T05:52:23.281Z,58.50
2018-07-01T05:54:52.424Z,58.90
2018-07-01T05:57:21.735Z,59.00
2018-07-01T05:59:50.848Z,59.60
2018-07-01T06:02:20.620Z,59.80
2018-07-01T06:04:49.644Z,59.20
2018-07-01T06:07:18.723Z,60.20
2018-07-01T06:09:47.782Z,59.70
2018-07-01T06:12:17.095Z,59.40
2018-07-01T06:14:46.281Z,59.50
2018-07-01T06:17:16.461Z,59.20
2018-07-01T06:19:46.312Z,59.20
2018-07-01T06:22:15.410Z,59.60
2018-07-01T06:24:44.470Z,59.00
2018-07-01T06:27:13.767Z,58.50
2018-07-01T06:29:42.992Z,58.90
2018-07-01T06:32:12.063Z,59.00
2018-07-01T06:34:41.312Z,58.70
2018-07-01T06:37:10.723Z,58.40
2018-07-01T06:39:39.877Z,58.20
2018-07-01T06:42:09.142Z,58.50
2018-07-01T06:44:39.861Z,57.90
2018-07-01T06:47:09.217Z,57.90
2018-07-01T06:49:38.394Z,58.20
2018-07-01T06:52:07.974Z,58.10
2018-07-01T06:54:37.908Z,57.50
2018-07-01T06:57:07.048Z,58.20
2018-07-01T06:59:36.844Z,58.70
2018-07-01T07:02:06.502Z,58.30
2018-07-01T07:04:35.763Z,57.00
2018-07-01T07:07:05.277Z,58.00
2018-07-01T07:09:34.453Z,58.00
2018-07-01T07:12:03.820Z,57.90
2018-07-01T07:14:32.975Z,57.90
2018-07-01T07:17:02.073Z,58.10
2018-07-01T07:19:31.748Z,58.00
2018-07-01T07:24:29.713Z,57.30
2018-07-01T07:26:59.870Z,57.70
2018-07-01T07:29:29.394Z,57.90
2018-07-01T07:34:27.707Z,58.50
2018-07-01T07:36:56.749Z,57.00
2018-07-01T07:39:26.054Z,57.80
2018-07-01T07:41:55.174Z,56.80
2018-07-01T07:44:24.516Z,56.90
2018-07-01T07:46:53.976Z,56.70
2018-07-01T07:49:23.300Z,56.90
2018-07-01T07:51:53.613Z,56.70
2018-07-01T07:54:23.043Z,56.00
2018-07-01T07:56:52.312Z,56.80
2018-07-01T07:59:21.589Z,55.80
2018-07-01T08:01:50.931Z,55.30
2018-07-01T08:04:20.007Z,56.30
2018-07-01T08:06:49.085Z,55.30
2018-07-01T08:09:18.404Z,54.30
2018-07-01T08:11:47.551Z,54.30
2018-07-01T08:14:16.663Z,54.60
2018-07-01T08:16:45.764Z,55.10
2018-07-01T08:19:14.839Z,55.40
2018-07-01T08:21:44.182Z,55.30
2018-07-01T08:24:13.453Z,55.50
2018-07-01T08:26:42.923Z,55.50
2018-07-01T08:29:12.203Z,54.80
2018-07-01T08:31:41.439Z,55.10
2018-07-01T08:34:10.757Z,53.40
2018-07-01T08:36:39.807Z,53.80
2018-07-01T08:39:10.557Z,53.60
2018-07-01T08:41:53.712Z,53.80
2018-07-01T08:44:22.756Z,53.70
2018-07-01T08:46:52.369Z,53.40
2018-07-01T08:49:21.510Z,53.60
2018-07-01T08:51:50.821Z,53.90
2018-07-01T08:54:19.932Z,53.30
2018-07-01T08:56:49.199Z,52.90
2018-07-01T08:59:18.241Z,52.20
2018-07-01T09:01:47.328Z,52.70
2018-07-01T09:04:16.841Z,51.80
2018-07-01T09:06:46.114Z,52.00
2018-07-01T09:09:15.161Z,51.90
2018-07-01T09:11:44.333Z,52.60
2018-07-01T09:14:13.448Z,52.60
2018-07-01T09:16:42.607Z,52.30
2018-07-01T09:19:11.660Z,52.50
2018-07-01T09:21:40.675Z,52.20
2018-07-01T09:24:10.148Z,52.30
2018-07-01T09:26:39.269Z,52.20
2018-07-01T09:29:08.538Z,51.60
2018-07-01T09:31:37.565Z,51.50
2018-07-01T09:34:06.636Z,51.30
2018-07-01T09:36:35.873Z,51.90
2018-07-01T09:39:08.174Z,51.80
2018-07-01T09:41:37.259Z,50.90
2018-07-01T09:44:06.565Z,51.60
2018-07-01T09:46:36.369Z,51.80
2018-07-01T09:49:06.086Z,52.60
2018-07-01T09:51:35.464Z,51.40
2018-07-01T09:54:04.819Z,51.80
2018-07-01T09:56:34.186Z,51.60
2018-07-01T09:59:03.936Z,51.40
2018-07-01T10:01:33.051Z,51.60
2018-07-01T10:04:02.188Z,50.90
2018-07-01T10:06:31.359Z,50.80
2018-07-01T10:09:00.512Z,51.70
2018-07-01T10:11:29.816Z,51.50
2018-07-01T10:13:59.171Z,51.10
2018-07-01T10:16:28.240Z,51.30
2018-07-01T10:18:57.552Z,51.20
2018-07-01T10:21:26.577Z,50.70
2018-07-01T10:23:55.914Z,50.50
2018-07-01T10:26:25.118Z,49.70
2018-07-01T10:29:04.389Z,50.80
2018-07-01T10:31:34.257Z,50.20
2018-07-01T10:34:03.539Z,51.00
2018-07-01T10:36:32.872Z,50.80
2018-07-01T10:39:02.356Z,50.50
2018-07-01T10:41:32.327Z,50.60
2018-07-01T10:44:02.988Z,51.20
2018-07-01T10:46:32.321Z,51.10
2018-07-01T10:49:01.454Z,50.40
2018-07-01T10:51:30.804Z,50.00
2018-07-01T10:53:59.841Z,49.60
2018-07-01T10:56:29.722Z,49.50
2018-07-01T10:58:58.987Z,50.50
2018-07-01T11:01:28.065Z,50.50
2018-07-01T11:03:58.046Z,49.60
2018-07-01T11:06:27.073Z,50.50
2018-07-01T11:08:56.308Z,50.20
2018-07-01T11:11:25.364Z,50.50
2018-07-01T11:13:54.683Z,50.20
2018-07-01T11:16:23.828Z,49.60
2018-07-01T11:18:52.977Z,49.50
2018-07-01T11:21:22.368Z,49.00
2018-07-01T11:23:51.496Z,50.40
2018-07-01T11:26:20.653Z,50.90
2018-07-01T11:28:49.834Z,50.00
2018-07-01T11:31:19.272Z,49.20
2018-07-01T11:33:48.373Z,48.70
2018-07-01T11:36:17.746Z,49.20
2018-07-01T11:38:46.932Z,48.40
2018-07-01T11:41:16.114Z,48.40
2018-07-01T11:43:45.370Z,47.30
2018-07-01T11:46:14.551Z,48.80
2018-07-01T11:48:43.848Z,47.20
2018-07-01T11:51:12.898Z,47.20
2018-07-01T11:53:42.099Z,47.40
2018-07-01T11:56:11.338Z,47.00
2018-07-01T11:58:40.427Z,46.80
2018-07-01T12:01:09.476Z,46.60
2018-07-01T12:03:38.531Z,46.70
2018-07-01T12:06:07.711Z,47.10
2018-07-01T12:08:36.818Z,47.00
2018-07-01T12:11:05.888Z,47.00
2018-07-01T12:13:34.983Z,47.40
2018-07-01T12:16:04.227Z,46.70
2018-07-01T12:18:33.757Z,47.10
2018-07-01T12:21:03.016Z,46.20
2018-07-01T12:23:32.846Z,47.30
2018-07-01T12:26:01.979Z,46.50
2018-07-01T12:28:31.046Z,46.70
2018-07-01T12:31:00.087Z,45.70
2018-07-01T12:33:29.267Z,43.80
2018-07-01T12:35:58.339Z,44.00
2018-07-01T12:38:27.627Z,44.20
2018-07-01T12:40:56.773Z,44.90
2018-07-01T12:45:54.802Z,43.30
2018-07-01T12:48:24.195Z,44.70
2018-07-01T12:50:53.395Z,43.80
2018-07-01T12:53:22.579Z,43.30
2018-07-01T12:55:51.854Z,44.00
2018-07-01T12:58:20.881Z,42.50
2018-07-01T13:00:49.916Z,43.20
2018-07-01T13:03:19.008Z,42.60
2018-07-01T13:05:48.136Z,42.30
2018-07-01T13:08:17.374Z,40.90
2018-07-01T13:10:46.531Z,40.40
2018-07-01T13:13:15.847Z,39.90
2018-07-01T13:15:44.973Z,40.40
2018-07-01T13:18:14.477Z,41.20
2018-07-01T13:20:43.674Z,41.40
2018-07-01T13:23:13.031Z,41.40
2018-07-01T13:25:42.198Z,41.00
2018-07-01T13:28:11.437Z,41.10
2018-07-01T13:30:40.488Z,41.50
2018-07-01T13:33:09.536Z,41.10
2018-07-01T13:35:38.655Z,40.50
2018-07-01T13:38:07.891Z,41.00
2018-07-01T13:40:36.958Z,40.90
2018-07-01T13:43:06.485Z,41.30
2018-07-01T13:45:35.645Z,41.30
2018-07-01T13:48:04.832Z,41.00
2018-07-01T13:50:33.882Z,41.10
2018-07-01T13:53:02.942Z,41.50
2018-07-01T13:55:32.151Z,40.80
2018-07-01T13:58:01.448Z,41.40
2018-07-01T14:00:30.773Z,40.50
2018-07-01T14:02:59.973Z,40.40
2018-07-01T14:05:29.052Z,39.00
2018-07-01T14:07:58.450Z,39.20
2018-07-01T14:10:27.481Z,40.00
2018-07-01T14:12:56.616Z,39.00
2018-07-01T14:15:25.741Z,38.80
2018-07-01T14:17:54.733Z,37.90
2018-07-01T14:20:23.937Z,38.10
2018-07-01T14:22:53.201Z,38.60
2018-07-01T14:25:22.435Z,38.40
2018-07-01T14:27:51.583Z,38.70
2018-07-01T14:30:21.122Z,38.70
2018-07-01T14:32:50.253Z,37.10
2018-07-01T14:35:19.368Z,37.10
2018-07-01T14:37:48.619Z,36.20
2018-07-01T14:40:17.855Z,37.00
2018-07-01T14:42:47.144Z,36.60
2018-07-01T14:45:16.225Z,36.80
2018-07-01T14:47:45.257Z,36.50
2018-07-01T14:50:14.427Z,36.30
2018-07-01T14:55:13.156Z,35.10
2018-07-01T14:57:42.395Z,34.20
2018-07-01T15:00:11.553Z,34.10
2018-07-01T15:02:40.729Z,34.00
2018-07-01T15:05:09.857Z,33.00
2018-07-01T15:07:39.096Z,32.50
2018-07-01T15:10:08.312Z,32.80
2018-07-01T15:12:37.617Z,31.90
2018-07-01T15:17:35.783Z,31.30
2018-07-01T15:20:05.438Z,31.10
2018-07-01T15:22:35.264Z,30.60
2018-07-01T15:25:04.523Z,29.70
2018-07-01T15:27:33.612Z,28.40
2018-07-01T15:30:02.663Z,29.20
2018-07-01T15:32:31.805Z,28.80
2018-07-01T15:35:00.876Z,28.30
2018-07-01T15:37:29.921Z,28.90
2018-07-01T15:39:59.297Z,28.90
2018-07-01T15:42:28.554Z,29.10
2018-07-01T15:44:57.663Z,29.40
2018-07-01T15:47:26.916Z,29.10
2018-07-01T15:49:57.006Z,28.60
2018-07-01T15:52:26.085Z,29.00
2018-07-01T15:54:55.411Z,29.40
2018-07-01T15:57:24.531Z,29.30
2018-07-01T15:59:53.721Z,29.20
2018-07-01T16:04:51.597Z,29.70
2018-07-01T16:07:20.793Z,28.40
2018-07-01T16:09:50.269Z,29.20
2018-07-01T16:12:19.593Z,29.00
2018-07-01T16:14:48.709Z,28.40
2018-07-01T16:19:46.618Z,28.20
2018-07-01T16:22:15.780Z,27.70
2018-07-01T16:24:50.852Z,28.00
2018-07-01T16:27:25.435Z,27.80
2018-07-01T16:29:54.500Z,28.30
2018-07-01T16:32:26.455Z,28.20
2018-07-01T16:34:55.616Z,27.50
2018-07-01T16:37:24.739Z,27.80
2018-07-01T16:39:53.934Z,27.50
2018-07-01T16:42:23.707Z,27.00
2018-07-01T16:44:53.611Z,27.20
2018-07-01T16:47:22.774Z,26.90
2018-07-01T16:49:51.851Z,26.80
2018-07-01T16:52:21.080Z,27.30
2018-07-01T16:54:50.386Z,27.10
2018-07-01T16:57:20.057Z,27.70
2018-07-01T16:59:49.080Z,27.10
2018-07-01T17:02:18.152Z,27.10
2018-07-01T17:04:47.230Z,26.30
2018-07-01T17:07:16.404Z,26.30
2018-07-01T17:09:45.577Z,26.30
2018-07-01T17:12:14.858Z,27.00
2018-07-01T17:14:44.005Z,26.80
2018-07-01T17:17:13.356Z,26.40
2018-07-01T17:19:42.532Z,26.60
2018-07-01T17:22:12.172Z,26.80
2018-07-01T17:24:41.300Z,26.70
2018-07-01T17:27:11.530Z,26.80
2018-07-01T17:29:40.889Z,27.60
2018-07-01T17:33:14.991Z,26.40
2018-07-01T17:35:44.353Z,26.90
2018-07-01T17:38:14.098Z,26.70
2018-07-01T17:40:43.181Z,26.30
2018-07-01T17:43:12.317Z,26.20
2018-07-01T17:45:41.497Z,26.30
2018-07-01T17:48:10.581Z,27.00
2018-07-01T17:50:39.639Z,26.80
2018-07-01T17:53:10.020Z,26.40
2018-07-01T17:55:39.064Z,26.70
2018-07-01T17:58:08.258Z,27.50
2018-07-01T18:00:37.363Z,27.10
2018-07-01T18:03:06.648Z,27.20
2018-07-01T18:05:35.771Z,27.20
2018-07-01T18:08:05.114Z,27.40
2018-07-01T18:10:34.236Z,28.00
2018-07-01T18:13:03.423Z,29.10
2018-07-01T18:15:32.475Z,29.80
2018-07-01T18:18:02.286Z,30.90
2018-07-01T18:20:31.487Z,32.40
2018-07-01T18:23:27.419Z,33.70
2018-07-01T18:25:30.127Z,34.80
2018-07-01T18:28:11.464Z,34.80
2018-07-01T18:30:28.574Z,35.40
2018-07-01T18:35:26.540Z,36.80
2018-07-01T18:40:25.030Z,37.50
2018-07-01T18:42:54.179Z,38.30
2018-07-01T18:45:23.455Z,38.10
2018-07-01T18:47:52.731Z,38.60
2018-07-01T18:50:21.894Z,38.70
2018-07-01T18:52:51.137Z,38.80
2018-07-01T18:55:20.263Z,39.20
2018-07-01T18:57:49.696Z,39.60
2018-07-01T19:00:18.921Z,40.00
2018-07-01T19:02:48.014Z,40.20
2018-07-01T19:05:17.302Z,40.50
2018-07-01T19:07:46.429Z,40.50
2018-07-01T19:10:15.614Z,41.00
2018-07-01T19:12:45.345Z,41.30
2018-07-01T19:15:14.844Z,41.50
2018-07-01T19:17:44.088Z,41.60
2018-07-01T19:20:13.202Z,42.00
2018-07-01T19:22:42.489Z,42.40
2018-07-01T19:25:12.111Z,42.50
2018-07-01T19:27:41.176Z,42.90
2018-07-01T19:30:10.327Z,43.00
2018-07-01T19:32:39.496Z,43.40
2018-07-01T19:35:08.792Z,44.10
2018-07-01T19:37:38.006Z,44.00
2018-07-01T19:40:07.268Z,44.60
2018-07-01T19:42:36.331Z,44.90
2018-07-01T19:45:06.027Z,45.30
2018-07-01T19:47:35.078Z,45.50
2018-07-01T19:50:04.279Z,46.00
2018-07-01T19:52:33.373Z,46.80
2018-07-01T19:55:02.784Z,47.30
2018-07-01T19:57:31.926Z,47.40
2018-07-01T20:00:01.890Z,48.10
2018-07-01T20:02:30.951Z,48.70
2018-07-01T20:05:00.083Z,49.30
2018-07-01T20:07:29.123Z,50.10
2018-07-01T20:12:26.898Z,51.50
2018-07-01T20:14:55.930Z,52.20
2018-07-01T20:17:24.968Z,52.20
2018-07-01T20:19:54.199Z,52.70
2018-07-01T20:22:23.528Z,52.80
2018-07-01T20:24:52.700Z,53.10
2018-07-01T20:27:21.856Z,53.70
2018-07-01T20:29:50.990Z,53.50
2018-07-01T20:32:20.149Z,53.90
2018-07-01T20:34:49.406Z,54.40
2018-07-01T20:37:18.651Z,54.60
2018-07-01T20:39:47.876Z,55.10
2018-07-01T20:42:16.966Z,56.00
2018-07-01T20:44:46.133Z,55.30
2018-07-01T20:47:15.323Z,55.50
2018-07-01T20:49:44.953Z,55.80
2018-07-01T20:52:13.965Z,55.60
2018-07-01T20:57:12.016Z,56.00
2018-07-01T20:59:41.151Z,56.10
2018-07-01T21:02:10.398Z,56.60
2018-07-01T21:04:39.875Z,56.90
2018-07-01T21:07:09.162Z,56.80
2018-07-01T21:09:38.452Z,57.00
2018-07-01T21:12:07.632Z,57.50
2018-07-01T21:14:37.329Z,58.00
2018-07-01T21:17:06.728Z,58.30
2018-07-01T21:19:35.931Z,58.40
2018-07-01T21:22:05.087Z,59.30
2018-07-01T21:24:34.150Z,58.60
2018-07-01T21:27:03.429Z,58.70
2018-07-01T21:29:32.653Z,59.20
2018-07-01T21:32:01.709Z,59.00
2018-07-01T21:34:30.903Z,59.20
2018-07-01T21:37:00.176Z,59.50
2018-07-01T21:39:29.361Z,60.60
2018-07-01T21:41:58.478Z,61.00
2018-07-01T21:44:27.757Z,61.00
2018-07-01T21:46:56.808Z,61.90
2018-07-01T21:49:26.018Z,62.60
2018-07-01T21:51:55.353Z,61.50
2018-07-01T21:54:24.481Z,62.60
2018-07-01T21:56:53.716Z,62.30
2018-07-01T21:59:22.736Z,62.90
2018-07-01T22:01:51.849Z,63.30
2018-07-01T22:04:21.027Z,64.20
2018-07-01T22:06:55.543Z,63.60
2018-07-01T22:09:24.713Z,64.40
2018-07-01T22:12:03.843Z,63.60
2018-07-01T22:14:40.389Z,64.40
2018-07-01T22:17:10.944Z,64.00
2018-07-01T22:19:40.342Z,64.60
2018-07-01T22:22:10.278Z,64.20
2018-07-01T22:24:39.972Z,63.80
2018-07-01T22:27:09.377Z,64.90
2018-07-01T22:29:38.666Z,64.20
2018-07-01T22:32:07.726Z,65.30
2018-07-01T22:34:36.998Z,65.30
2018-07-01T22:37:06.218Z,65.80
2018-07-01T22:39:35.446Z,65.50
2018-07-01T22:42:04.778Z,65.70
2018-07-01T22:44:33.825Z,66.30
2018-07-01T22:47:03.444Z,66.40
2018-07-01T22:49:32.580Z,66.30
2018-07-01T22:54:30.487Z,67.90
2018-07-01T22:57:00.478Z,67.50
2018-07-01T22:59:29.576Z,67.60
2018-07-01T23:03:12.948Z,68.00
2018-07-01T23:05:42.386Z,67.90
2018-07-01T23:08:11.584Z,68.50
2018-07-01T23:10:40.680Z,67.90
2018-07-01T23:13:10.016Z,68.30
2018-07-01T23:15:39.192Z,68.20
2018-07-01T23:18:08.984Z,68.30
2018-07-01T23:20:38.060Z,68.50
2018-07-01T23:23:07.197Z,68.90
2018-07-01T23:25:36.393Z,68.90
2018-07-01T23:28:05.480Z,69.20
2018-07-01T23:30:34.946Z,69.90
2018-07-01T23:33:04.284Z,69.90
2018-07-01T23:35:33.419Z,70.40
2018-07-01T23:38:02.499Z,70.70
2018-07-01T23:43:00.412Z,71.90
2018-07-01T23:45:29.431Z,71.90
2018-07-01T23:47:58.569Z,72.50
2018-07-01T23:55:26.580Z,74.30
2018-07-01T23:57:55.867Z,73.70
